首页
METAR-TAF:

METAR-TAF

机场 :

科爾達, 塞内加尔

纬度: 12-53N, 经度: 014-58W, 海拔: 10米

当前天气观测

该预报发布于4小时和40分钟前的00:00 UTC
风速4节,风向
温度 27°C
湿度 84%
气压 1014 hPa
能见度10公里或以上
散云层高于3000英尺, 积雨云.
多云层高于13000英尺
雷暴, 雨,

METAR: GOGK 280000Z 36004KT 9999 TSRA SCT030CB BKN130 27/24 Q1014

时间: 04:40 (04:40 UTC)


TAF: 丢失

超过4000个机场的气象观测和天气预报(METAR&TAF报告)。

可查询的气象台以黄色和红色小点在地图上表示。

将鼠标移到小点上方,可查看气象台名称。

然后点击查看天气观测和预报。

如需切换地图:点击带黑十字的绿色按钮放大地图;点击带横线的绿色按钮缩小地图;或者点击绿色箭头查看邻近地区的地图。


METAR-TAF: